Time,TemperatureF,DewpointF,PressureIn,WindDirection,WindDirectionDegrees,WindSpeedMPH,WindSpeedGustMPH,Humidity,HourlyPrecipIn,Conditions,Clouds,dailyrainin,SoftwareType,DateUTC
2013-08-09 14:58:00,82.4,71.6,29.53,NW,315,6.9,6.9,70,0.00,,---,0.00,VWS V14.01,2013-08-09 19:58:00,
2013-08-09 15:03:00,79.2,68.5,30.12,NNW,338,6.5,6.5,70,0.00,,---,0.00,VWS V14.01,2013-08-09 20:03:00,
2013-08-09 15:08:00,77.4,67.2,30.12,ESE,112,7.8,7.8,71,0.00,,---,0.00,VWS V14.01,2013-08-09 20:08:00,
2013-08-09 15:13:00,75.7,66.9,30.12,ESE,112,4.0,5.6,74,0.00,,---,0.00,VWS V14.01,2013-08-09 20:13:00,
2013-08-09 15:18:00,75.0,67.3,30.09,ENE,68,3.4,6.3,77,0.00,,---,0.00,VWS V14.01,2013-08-09 20:18:00,
2013-08-09 15:23:00,75.0,68.1,30.09,ENE,68,4.7,4.7,79,0.00,,---,0.00,VWS V14.01,2013-08-09 20:23:00,
2013-08-09 15:28:00,75.2,68.6,30.09,West,270,0.0,0.0,80,0.00,,---,0.00,VWS V14.01,2013-08-09 20:28:00,
2013-08-09 15:33:00,75.6,69.7,30.12,WNW,292,0.0,1.3,82,0.00,,---,0.00,VWS V14.01,2013-08-09 20:33:00,
2013-08-09 15:38:00,75.7,70.6,30.12,North,0,2.7,2.7,84,0.00,,---,0.00,VWS V14.01,2013-08-09 20:38:00,
2013-08-09 15:43:00,75.9,71.1,30.12,ENE,68,2.0,2.7,85,0.00,,---,0.00,VWS V14.01,2013-08-09 20:43:00,
2013-08-09 15:48:00,76.1,71.6,30.12,NNE,22,0.0,0.0,86,0.00,,---,0.04,VWS V14.01,2013-08-09 20:48:00,
2013-08-09 15:53:00,76.3,71.8,30.12,ESE,112,3.4,3.4,86,0.00,,---,0.04,VWS V14.01,2013-08-09 20:53:00,
2013-08-09 15:58:00,76.5,72.0,30.12,NNE,22,1.6,1.6,86,0.00,,---,0.04,VWS V14.01,2013-08-09 20:58:00,
2013-08-09 16:03:00,76.6,72.1,30.09,ENE,68,4.0,6.7,86,0.00,,---,0.04,VWS V14.01,2013-08-09 21:03:00,
2013-08-09 16:08:00,76.6,72.1,30.09,ESE,112,3.4,3.4,86,0.00,,---,0.04,VWS V14.01,2013-08-09 21:08:00,
2013-08-09 16:13:00,76.8,72.3,30.09,ESE,112,2.5,2.5,86,0.00,,---,0.04,VWS V14.01,2013-08-09 21:13:00,
2013-08-09 16:18:00,77.0,72.5,30.09,ESE,112,2.5,2.9,86,0.00,,---,0.04,VWS V14.01,2013-08-09 21:18:00,
2013-08-09 16:23:00,77.4,73.2,30.09,ENE,68,4.3,4.3,87,0.00,,---,0.04,VWS V14.01,2013-08-09 21:23:00,
2013-08-09 16:28:00,77.7,73.6,30.09,ESE,112,6.0,6.0,87,0.00,,---,0.04,VWS V14.01,2013-08-09 21:28:00,
2013-08-09 16:33:00,78.3,74.1,30.12,East,90,2.5,2.5,87,0.00,,---,0.04,VWS V14.01,2013-08-09 21:33:00,
2013-08-09 16:38:00,78.3,74.1,30.12,ENE,68,3.6,3.6,87,0.04,,---,0.04,VWS V14.01,2013-08-09 21:38:00,
2013-08-09 16:43:00,78.3,73.7,30.12,ESE,112,8.1,8.1,86,0.04,,---,0.04,VWS V14.01,2013-08-09 21:43:00,
2013-08-09 16:48:00,79.0,74.1,30.09,ENE,68,3.4,3.4,85,0.00,,---,0.04,VWS V14.01,2013-08-09 21:48:00,
2013-08-09 16:53:00,79.3,74.4,30.09,East,90,3.4,3.4,85,0.00,,---,0.04,VWS V14.01,2013-08-09 21:53:00,
2013-08-09 16:58:00,79.7,74.4,30.09,SSW,202,1.3,2.7,84,0.00,,---,0.04,VWS V14.01,2013-08-09 21:58:00,
2013-08-09 17:03:00,79.9,74.6,30.12,SE,135,0.9,0.9,84,0.00,,---,0.04,VWS V14.01,2013-08-09 22:03:00,
2013-08-09 17:08:00,80.1,74.8,30.12,SW,225,0.0,2.0,84,0.00,,---,0.04,VWS V14.01,2013-08-09 22:08:00,
2013-08-09 17:13:00,80.4,74.8,30.12,WSW,248,0.0,0.0,83,0.00,,---,0.04,VWS V14.01,2013-08-09 22:13:00,
2013-08-09 17:18:00,80.4,74.4,30.12,ESE,112,1.3,1.6,82,0.00,,---,0.04,VWS V14.01,2013-08-09 22:18:00,
2013-08-09 17:23:00,80.6,74.6,30.12,ESE,112,0.9,0.9,82,0.00,,---,0.04,VWS V14.01,2013-08-09 22:23:00,
2013-08-09 17:28:00,80.8,74.4,30.12,NE,45,2.7,3.1,81,0.00,,---,0.04,VWS V14.01,2013-08-09 22:28:00,
2013-08-09 17:33:00,81.0,73.8,30.09,SE,135,2.0,2.7,79,0.00,,---,0.04,VWS V14.01,2013-08-09 22:33:00,
2013-08-09 17:38:00,81.0,73.8,30.09,East,90,2.0,3.6,79,0.00,,---,0.04,VWS V14.01,2013-08-09 22:38:00,
2013-08-09 17:43:00,81.1,74.0,30.09,WSW,248,0.0,0.0,79,0.00,,---,0.04,VWS V14.01,2013-08-09 22:43:00,
2013-08-09 17:48:00,81.0,73.5,30.12,ENE,68,2.5,2.5,78,0.00,,---,0.04,VWS V14.01,2013-08-09 22:48:00,
2013-08-09 17:53:00,80.6,73.1,30.12,WSW,248,0.0,1.3,78,0.00,,---,0.04,VWS V14.01,2013-08-09 22:53:00,
2013-08-09 17:58:00,80.8,73.3,30.12,East,90,2.7,2.7,78,0.00,,---,0.04,VWS V14.01,2013-08-09 22:58:00,
2013-08-09 18:03:00,80.8,73.3,30.09,SSE,158,0.0,0.0,78,0.00,,---,0.04,VWS V14.01,2013-08-09 23:03:00,
2013-08-09 18:08:00,81.0,73.5,30.09,East,90,2.0,3.4,78,0.00,,---,0.04,VWS V14.01,2013-08-09 23:08:00,
2013-08-09 18:13:00,80.8,73.3,30.09,NE,45,3.1,3.4,78,0.00,,---,0.04,VWS V14.01,2013-08-09 23:13:00,
2013-08-09 18:18:00,80.4,72.9,30.09,NE,45,2.9,3.6,78,0.00,,---,0.04,VWS V14.01,2013-08-09 23:18:00,
2013-08-09 18:23:00,79.9,72.4,30.09,East,90,1.1,4.0,78,0.00,,---,0.04,VWS V14.01,2013-08-09 23:23:00,
2013-08-09 18:28:00,79.7,72.2,30.09,ESE,112,0.0,0.0,78,0.00,,---,0.04,VWS V14.01,2013-08-09 23:28:00,
2013-08-09 18:33:00,79.5,72.1,30.09,ESE,112,0.0,0.0,78,0.00,,---,0.04,VWS V14.01,2013-08-09 23:33:00,
2013-08-09 18:38:00,79.2,72.1,30.09,WSW,248,0.0,0.0,79,0.00,,---,0.04,VWS V14.01,2013-08-09 23:38:00,
2013-08-09 18:43:00,79.0,72.3,30.09,WSW,248,0.0,0.0,80,0.00,,---,0.04,VWS V14.01,2013-08-09 23:43:00,
2013-08-09 18:48:00,78.8,72.5,30.09,WSW,248,0.0,0.0,81,0.00,,---,0.04,VWS V14.01,2013-08-09 23:48:00,
2013-08-09 18:53:00,78.6,72.7,30.09,WSW,248,0.0,0.0,82,0.00,,---,0.04,VWS V14.01,2013-08-09 23:53:00,
2013-08-09 18:58:00,78.4,72.5,30.09,ENE,68,0.0,0.0,82,0.00,,---,0.04,VWS V14.01,2013-08-09 23:58:00,
2013-08-09 19:03:00,78.1,72.1,30.09,East,90,3.6,3.8,82,0.00,,---,0.04,VWS V14.01,2013-08-10 00:03:00,
2013-08-09 19:08:00,78.1,72.1,30.09,ESE,112,2.0,2.9,82,0.00,,---,0.04,VWS V14.01,2013-08-10 00:08:00,
2013-08-09 19:13:00,77.9,72.0,30.09,SE,135,2.0,2.5,82,0.00,,---,0.04,VWS V14.01,2013-08-10 00:13:00,
2013-08-09 19:18:00,77.7,72.2,30.09,ESE,112,0.0,2.2,83,0.00,,---,0.04,VWS V14.01,2013-08-10 00:18:00,
2013-08-09 19:22:00,77.5,72.0,30.09,ENE,68,2.9,3.6,83,0.00,,---,0.04,VWS V14.01,2013-08-10 00:22:00,
2013-08-09 19:27:00,77.4,72.2,30.09,East,90,1.3,1.3,84,0.00,,---,0.04,VWS V14.01,2013-08-10 00:27:00,
2013-08-09 19:32:00,77.2,72.0,30.12,SE,135,0.0,0.0,84,0.00,,---,0.04,VWS V14.01,2013-08-10 00:32:00,
2013-08-09 19:33:00,77.2,72.0,30.12,SE,135,0.0,0.0,84,0.00,,---,0.04,VWS V14.01,2013-08-10 00:33:00,
2013-08-09 19:38:00,77.0,72.2,30.12,ESE,112,2.5,2.5,85,0.00,,---,0.04,VWS V14.01,2013-08-10 00:38:00,
2013-08-09 19:43:00,77.0,72.2,30.12,ESE,112,1.3,2.0,85,0.00,,---,0.04,VWS V14.01,2013-08-10 00:43:00,
2013-08-09 19:48:00,76.8,72.3,30.12,East,90,0.0,0.0,86,0.00,,---,0.04,VWS V14.01,2013-08-10 00:48:00,
2013-08-09 19:53:00,76.8,72.3,30.12,ESE,112,0.0,0.0,86,0.00,,---,0.04,VWS V14.01,2013-08-10 00:53:00,
2013-08-09 19:58:00,76.6,72.1,30.12,ESE,112,0.0,0.0,86,0.00,,---,0.04,VWS V14.01,2013-08-10 00:58:00,
2013-08-09 20:03:00,76.5,72.0,30.12,ESE,112,0.0,1.6,86,0.00,,---,0.04,VWS V14.01,2013-08-10 01:03:00,
2013-08-09 20:08:00,76.5,72.3,30.12,ESE,112,2.7,3.1,87,0.00,,---,0.04,VWS V14.01,2013-08-10 01:08:00,
2013-08-09 20:13:00,76.5,72.3,30.12,NE,45,2.9,2.9,87,0.00,,---,0.04,VWS V14.01,2013-08-10 01:13:00,
2013-08-09 20:17:00,76.5,72.3,30.12,ESE,112,0.0,0.0,87,0.00,,---,0.04,VWS V14.01,2013-08-10 01:17:00,
2013-08-09 20:22:00,76.3,72.1,30.12,ESE,112,2.2,2.7,87,0.00,,---,0.04,VWS V14.01,2013-08-10 01:22:00,
2013-08-09 20:27:00,76.3,72.1,30.12,WSW,248,0.0,0.0,87,0.00,,---,0.04,VWS V14.01,2013-08-10 01:27:00,
2013-08-09 20:32:00,76.1,71.9,30.12,SW,225,0.0,0.0,87,0.00,,---,0.04,VWS V14.01,2013-08-10 01:32:00,
2013-08-09 20:37:00,75.9,71.8,30.12,WSW,248,0.0,0.0,87,0.00,,---,0.04,VWS V14.01,2013-08-10 01:37:00,
2013-08-09 20:42:00,75.7,71.6,30.12,WSW,248,0.0,0.0,87,0.00,,---,0.04,VWS V14.01,2013-08-10 01:42:00,
2013-08-09 20:47:00,75.6,71.8,30.12,ENE,68,0.0,0.0,88,0.00,,---,0.04,VWS V14.01,2013-08-10 01:47:00,
2013-08-09 20:52:00,75.6,71.8,30.12,NE,45,0.0,0.0,88,0.00,,---,0.04,VWS V14.01,2013-08-10 01:52:00,
2013-08-09 20:57:00,75.4,71.6,30.12,NE,45,0.0,0.0,88,0.00,,---,0.04,VWS V14.01,2013-08-10 01:57:00,
2013-08-09 21:02:00,75.4,71.6,30.12,ENE,68,0.0,0.0,88,0.00,,---,0.04,VWS V14.01,2013-08-10 02:02:00,
2013-08-09 21:07:00,75.2,71.7,30.12,ENE,68,0.0,0.0,89,0.00,,---,0.04,VWS V14.01,2013-08-10 02:07:00,
2013-08-09 21:12:00,75.2,71.7,30.12,ENE,68,0.0,0.0,89,0.00,,---,0.04,VWS V14.01,2013-08-10 02:12:00,
2013-08-09 21:17:00,75.0,71.6,30.15,ENE,68,0.0,0.0,89,0.00,,---,0.04,VWS V14.01,2013-08-10 02:17:00,
2013-08-09 21:22:00,75.0,71.9,30.15,ENE,68,0.0,0.0,90,0.00,,---,0.04,VWS V14.01,2013-08-10 02:22:00,
2013-08-09 21:27:00,74.8,71.7,30.15,ENE,68,0.0,0.0,90,0.00,,---,0.04,VWS V14.01,2013-08-10 02:27:00,
2013-08-09 21:32:00,74.8,71.7,30.15,East,90,0.0,0.0,90,0.00,,---,0.04,VWS V14.01,2013-08-10 02:32:00,
2013-08-09 21:37:00,74.8,71.7,30.15,East,90,0.0,0.0,90,0.00,,---,0.04,VWS V14.01,2013-08-10 02:37:00,
2013-08-09 21:42:00,74.7,71.5,30.15,East,90,0.0,0.0,90,0.00,,---,0.04,VWS V14.01,2013-08-10 02:42:00,
2013-08-09 21:47:00,74.5,71.4,30.15,East,90,0.0,0.0,90,0.00,,---,0.04,VWS V14.01,2013-08-10 02:47:00,
2013-08-09 21:52:00,74.5,71.4,30.15,East,90,0.0,0.0,90,0.00,,---,0.04,VWS V14.01,2013-08-10 02:52:00,
2013-08-09 21:57:00,74.3,71.5,30.15,East,90,0.0,0.0,91,0.00,,---,0.04,VWS V14.01,2013-08-10 02:57:00,
2013-08-09 22:02:00,74.3,71.5,30.15,East,90,0.0,0.0,91,0.00,,---,0.04,VWS V14.01,2013-08-10 03:02:00,
2013-08-09 22:07:00,74.1,71.3,30.15,East,90,0.0,0.0,91,0.00,,---,0.04,VWS V14.01,2013-08-10 03:07:00,
2013-08-09 22:12:00,74.1,71.3,30.15,East,90,0.0,0.0,91,0.00,,---,0.04,VWS V14.01,2013-08-10 03:12:00,
2013-08-09 22:17:00,74.1,71.3,30.15,East,90,0.0,0.0,91,0.00,,---,0.04,VWS V14.01,2013-08-10 03:17:00,
2013-08-09 22:22:00,73.9,71.5,30.15,East,90,0.0,0.0,92,0.00,,---,0.04,VWS V14.01,2013-08-10 03:22:00,
2013-08-09 22:27:00,74.1,71.7,30.15,East,90,0.0,0.0,92,0.00,,---,0.04,VWS V14.01,2013-08-10 03:27:00,
2013-08-09 22:32:00,73.9,71.5,30.15,East,90,0.0,0.0,92,0.00,,---,0.04,VWS V14.01,2013-08-10 03:32:00,
2013-08-09 22:37:00,73.9,71.5,30.15,ENE,68,0.0,0.0,92,0.00,,---,0.04,VWS V14.01,2013-08-10 03:37:00,
2013-08-09 22:42:00,73.9,71.5,30.15,ESE,112,0.0,0.0,92,0.00,,---,0.04,VWS V14.01,2013-08-10 03:42:00,
2013-08-09 22:47:00,73.9,71.5,30.15,ESE,112,0.0,0.0,92,0.00,,---,0.04,VWS V14.01,2013-08-10 03:47:00,
2013-08-09 22:52:00,73.8,71.3,30.15,SSE,158,0.0,0.0,92,0.00,,---,0.04,VWS V14.01,2013-08-10 03:52:00,
2013-08-09 22:57:00,73.8,71.3,30.15,SSE,158,0.0,0.0,92,0.00,,---,0.04,VWS V14.01,2013-08-10 03:57:00,
2013-08-09 23:01:00,73.8,71.3,30.15,SSE,158,0.0,0.0,92,0.00,,---,0.04,VWS V14.01,2013-08-10 04:01:00,
2013-08-09 23:06:00,73.6,71.1,30.15,SSE,158,0.0,0.0,92,0.00,,---,0.04,VWS V14.01,2013-08-10 04:06:00,
2013-08-09 23:11:00,73.6,71.1,30.15,SSE,158,0.0,0.0,92,0.00,,---,0.04,VWS V14.01,2013-08-10 04:11:00,
2013-08-09 23:16:00,73.6,71.4,30.15,SSE,158,0.0,0.0,93,0.00,,---,0.04,VWS V14.01,2013-08-10 04:16:00,
2013-08-09 23:21:00,73.4,71.3,30.15,SSE,158,0.0,0.0,93,0.00,,---,0.04,VWS V14.01,2013-08-10 04:21:00,
2013-08-09 23:26:00,73.4,71.3,30.15,SSE,158,0.0,0.0,93,0.00,,---,0.04,VWS V14.01,2013-08-10 04:26:00,
2013-08-09 23:31:00,73.4,71.3,30.15,SSE,158,0.0,0.0,93,0.00,,---,0.04,VWS V14.01,2013-08-10 04:31:00,
2013-08-09 23:36:00,73.4,71.3,30.15,SSE,158,0.0,0.0,93,0.00,,---,0.04,VWS V14.01,2013-08-10 04:36:00,
2013-08-09 23:41:00,73.6,71.4,30.15,ESE,112,0.0,0.0,93,0.00,,---,0.04,VWS V14.01,2013-08-10 04:41:00,
2013-08-09 23:46:00,73.6,71.8,30.15,ESE,112,0.0,0.0,94,0.00,,---,0.04,VWS V14.01,2013-08-10 04:46:00,
2013-08-09 23:51:00,73.6,71.8,30.15,ESE,112,0.0,0.0,94,0.00,,---,0.04,VWS V14.01,2013-08-10 04:51:00,
2013-08-09 23:56:00,73.6,71.8,30.15,SE,135,0.0,0.0,94,0.00,,---,0.04,VWS V14.01,2013-08-10 04:56:00,